Time;durP1;ratioP1;P1;durP2;ratioP2;P2;SDS_P1;SDS_P2;PMS_P1;PMS_P2;Temp;Humidity;BMP_temperature;BMP_pressure;BME280_temperature;BME280_humidity;BME280_pressure;Samples;Min_cycle;Max_cycle;Signal;HPM_P1;HPM_P2
2022/06/24 00:01:37;;;;;;;;;;;;;;;;;;4937626;29;19926;-75
2022/06/24 00:04:03;;;;;;;;;;;;;;;;;;4936395;29;20035;-75
2022/06/24 00:06:41;;;;;;;;;;;;;;;;;;4936190;29;19918;-75
2022/06/24 00:09:06;;;;;;;;;;;;;;;;;;4937623;29;19927;-75
2022/06/24 00:11:34;;;;;;;;;;;;;;;;;;4920150;29;19926;-75
2022/06/24 00:14:10;;;;;;;;;;;;;;;;;;4936282;29;19922;-75
2022/06/24 00:16:55;;;;;;;;;;;;;;;;;;4935841;29;20388;-75
2022/06/24 00:19:21;;;;;;;;;;;;;;;;;;4937583;29;19918;-75
2022/06/24 00:22:16;;;;;;;;;;;;;;;;;;4936086;28;20392;-75
2022/06/24 00:24:42;;;;;;;;;;;;;;;;;;4916176;29;19919;-75
2022/06/24 00:27:18;;;;;;;;;;;;;;;;;;4934413;29;19926;-75
2022/06/24 00:29:44;;;;;;;;;;;;;;;;;;4920321;29;19926;-75
2022/06/24 00:32:09;;;;;;;;;;;;;;;;;;4937124;29;19919;-75
2022/06/24 00:34:36;;;;;;;;;;;;;;;;;;4935916;29;19966;-75
2022/06/24 00:37:20;;;;;;;;;;;;;;;;;;4937037;29;19923;-75
2022/06/24 00:39:45;;;;;;;;;;;;;;;;;;4935794;28;19922;-75
2022/06/24 00:42:11;;;;;;;;;;;;;;;;;;4936537;29;20274;-75
2022/06/24 00:44:42;;;;;;;;;;;;;;;;;;4937113;29;19929;-75
2022/06/24 00:47:09;;;;;;;;;;;;;;;;;;4935498;28;20336;-75
2022/06/24 00:49:35;;;;;;;;;;;;;;;;;;4935688;29;20642;-75
2022/06/24 00:52:07;;;;;;;;;;;;;;;;;;4936911;29;19926;-75
2022/06/24 00:54:33;;;;;;;;;;;;;;;;;;4936936;29;19925;-75
2022/06/24 00:56:58;;;;;;;;;;;;;;;;;;4936185;29;20292;-75
2022/06/24 00:59:24;;;;;;;;;;;;;;;;;;4919742;29;19919;-75
2022/06/24 01:01:50;;;;;;;;;;;;;;;;;;4934098;29;19918;-75
2022/06/24 01:04:15;;;;;;;;;;;;;;;;;;4919818;29;19965;-75
2022/06/24 01:06:42;;;;;;;;;;;;;;;;;;4935476;29;20288;-75
2022/06/24 01:09:10;;;;;;;;;;;;;;;;;;4935615;29;19927;-75
2022/06/24 01:11:36;;;;;;;;;;;;;;;;;;4934805;29;19919;-75
2022/06/24 01:14:02;;;;;;;;;;;;;;;;;;4919453;29;19925;-75
2022/06/24 01:16:28;;;;;;;;;;;;;;;;;;4936595;29;20400;-75
2022/06/24 01:18:54;;;;;;;;;;;;;;;;;;4935503;29;19936;-75
2022/06/24 01:21:49;;;;;;;;;;;;;;;;;;4919468;29;19926;-75
2022/06/24 01:24:17;;;;;;;;;;;;;;;;;;4915254;29;19989;-75
2022/06/24 01:26:44;;;;;;;;;;;;;;;;;;4919065;29;19922;-75
2022/06/24 01:29:10;;;;;;;;;;;;;;;;;;4935811;29;19960;-75
2022/06/24 01:31:38;;;;;;;;;;;;;;;;;;4935345;29;20285;-75
2022/06/24 01:34:04;;;;;;;;;;;;;;;;;;4903505;29;20321;-75
2022/06/24 01:36:29;;;;;;;;;;;;;;;;;;4919558;29;19922;-75
2022/06/24 01:38:54;;;;;;;;;;;;;;;;;;4934968;29;20014;-75
2022/06/24 01:41:21;;;;;;;;;;;;;;;;;;4935090;29;19923;-75
2022/06/24 01:43:47;;;;;;;;;;;;;;;;;;4934818;29;19965;-75
2022/06/24 01:46:12;;;;;;;;;;;;;;;;;;4935130;29;19954;-75
2022/06/24 01:48:39;;;;;;;;;;;;;;;;;;4936319;29;19926;-75
2022/06/24 01:51:05;;;;;;;;;;;;;;;;;;4919218;29;20272;-75
2022/06/24 01:53:30;;;;;;;;;;;;;;;;;;4936144;29;20005;-75
2022/06/24 01:55:56;;;;;;;;;;;;;;;;;;4919321;29;20018;-75
2022/06/24 01:58:21;;;;;;;;;;;;;;;;;;4934733;28;19919;-75
2022/06/24 02:00:47;;;;;;;;;;;;;;;;;;4935572;29;20009;-75
2022/06/24 02:03:12;;;;;;;;;;;;;;;;;;4918733;29;19977;-75
2022/06/24 02:05:38;;;;;;;;;;;;;;;;;;4936290;29;19923;-75
2022/06/24 02:08:03;;;;;;;;;;;;;;;;;;4934906;28;19926;-75
2022/06/24 02:13:28;;;;;;;;;;;;;;;;;;4936089;29;19918;-76
2022/06/24 02:15:54;;;;;;;;;;;;;;;;;;4938491;29;19927;-76
2022/06/24 02:18:20;;;;;;;;;;;;;;;;;;4938069;29;20265;-75
2022/06/24 02:20:45;;;;;;;;;;;;;;;;;;4922431;29;19970;-77
2022/06/24 02:23:11;;;;;;;;;;;;;;;;;;4920950;29;20017;-75
2022/06/24 02:25:36;;;;;;;;;;;;;;;;;;4938007;29;20501;-75
2022/06/24 02:28:02;;;;;;;;;;;;;;;;;;4938122;28;19919;-75
2022/06/24 02:30:29;;;;;;;;;;;;;;;;;;4938048;29;20264;-75
2022/06/24 02:32:55;;;;;;;;;;;;;;;;;;4938153;29;19919;-76
2022/06/24 02:35:21;;;;;;;;;;;;;;;;;;4937750;28;19969;-75
2022/06/24 02:37:46;;;;;;;;;;;;;;;;;;4938107;29;19974;-75
2022/06/24 02:42:57;;;;;;;;;;;;;;;;;;4939174;29;19933;-75
2022/06/24 02:45:23;;;;;;;;;;;;;;;;;;4938032;29;19919;-76
2022/06/24 02:47:48;;;;;;;;;;;;;;;;;;4938167;29;19970;-77
2022/06/24 02:50:14;;;;;;;;;;;;;;;;;;4938090;29;20021;-76
2022/06/24 02:52:40;;;;;;;;;;;;;;;;;;4937698;29;20026;-76
2022/06/24 02:55:05;;;;;;;;;;;;;;;;;;4920842;29;19919;-76
2022/06/24 02:57:30;;;;;;;;;;;;;;;;;;4936602;29;19946;-75
2022/06/24 02:59:56;;;;;;;;;;;;;;;;;;4919429;29;19926;-75
2022/06/24 03:02:21;;;;;;;;;;;;;;;;;;4919473;29;19965;-76
2022/06/24 03:04:47;;;;;;;;;;;;;;;;;;4934741;29;19919;-75
2022/06/24 03:07:12;;;;;;;;;;;;;;;;;;4919231;29;19954;-75
2022/06/24 03:09:38;;;;;;;;;;;;;;;;;;4934744;29;19926;-75
2022/06/24 03:12:03;;;;;;;;;;;;;;;;;;4936840;29;19919;-75
2022/06/24 03:14:29;;;;;;;;;;;;;;;;;;4938580;29;19926;-75
2022/06/24 03:16:54;;;;;;;;;;;;;;;;;;4936563;29;19930;-75
2022/06/24 03:19:20;;;;;;;;;;;;;;;;;;4936156;29;19919;-75
2022/06/24 03:21:45;;;;;;;;;;;;;;;;;;4919083;29;20385;-75
2022/06/24 03:24:12;;;;;;;;;;;;;;;;;;4919046;29;20111;-75
2022/06/24 03:26:37;;;;;;;;;;;;;;;;;;4918282;29;19922;-75
2022/06/24 03:29:03;;;;;;;;;;;;;;;;;;4935226;29;19926;-75
2022/06/24 03:31:28;;;;;;;;;;;;;;;;;;4937037;29;19941;-75
2022/06/24 03:33:55;;;;;;;;;;;;;;;;;;4936877;29;19925;-75
2022/06/24 03:36:21;;;;;;;;;;;;;;;;;;4936989;29;19930;-76
2022/06/24 03:38:47;;;;;;;;;;;;;;;;;;4936818;28;20369;-75
2022/06/24 03:41:13;;;;;;;;;;;;;;;;;;4937956;29;19930;-76
2022/06/24 03:43:38;;;;;;;;;;;;;;;;;;4936872;28;20356;-75
2022/06/24 03:46:04;;;;;;;;;;;;;;;;;;4936930;29;19923;-75
2022/06/24 03:48:30;;;;;;;;;;;;;;;;;;4936721;29;19918;-75
2022/06/24 03:50:56;;;;;;;;;;;;;;;;;;4921075;29;20294;-75
2022/06/24 03:53:21;;;;;;;;;;;;;;;;;;4936804;29;19926;-75
2022/06/24 03:55:50;;;;;;;;;;;;;;;;;;4920566;29;19931;-75
2022/06/24 03:58:16;;;;;;;;;;;;;;;;;;4920683;29;20010;-75
2022/06/24 04:00:42;;;;;;;;;;;;;;;;;;4937578;29;20468;-75
2022/06/24 04:03:07;;;;;;;;;;;;;;;;;;4936476;28;19925;-75
2022/06/24 04:05:33;;;;;;;;;;;;;;;;;;4920957;29;19925;-75
2022/06/24 04:07:58;;;;;;;;;;;;;;;;;;4920312;29;19919;-75
2022/06/24 04:10:25;;;;;;;;;;;;;;;;;;4920448;29;19930;-75
2022/06/24 04:12:51;;;;;;;;;;;;;;;;;;4937310;29;19923;-75
2022/06/24 04:15:17;;;;;;;;;;;;;;;;;;4920257;29;20388;-75
2022/06/24 04:17:46;;;;;;;;;;;;;;;;;;4936586;29;19919;-75
2022/06/24 04:20:12;;;;;;;;;;;;;;;;;;4937441;29;19918;-75
2022/06/24 04:22:37;;;;;;;;;;;;;;;;;;4936324;29;20596;-75
2022/06/24 04:25:03;;;;;;;;;;;;;;;;;;4920371;29;19919;-76
2022/06/24 04:27:28;;;;;;;;;;;;;;;;;;4937248;29;19918;-75
2022/06/24 04:30:00;;;;;;;;;;;;;;;;;;4937409;29;20006;-75
2022/06/24 04:32:26;;;;;;;;;;;;;;;;;;4937192;29;19919;-76
2022/06/24 04:34:51;;;;;;;;;;;;;;;;;;4937330;29;20001;-75
2022/06/24 04:37:16;;;;;;;;;;;;;;;;;;4935125;29;20431;-75
2022/06/24 04:39:43;;;;;;;;;;;;;;;;;;4935919;29;19941;-75
2022/06/24 04:42:08;;;;;;;;;;;;;;;;;;4937074;29;19930;-75
2022/06/24 04:44:34;;;;;;;;;;;;;;;;;;4935896;28;19919;-75
2022/06/24 04:47:00;;;;;;;;;;;;;;;;;;4920110;29;19919;-75
2022/06/24 04:49:25;;;;;;;;;;;;;;;;;;4937005;29;20021;-75
2022/06/24 04:51:50;;;;;;;;;;;;;;;;;;4919772;29;19962;-75
2022/06/24 04:54:16;;;;;;;;;;;;;;;;;;4934822;29;19929;-75
2022/06/24 04:56:41;;;;;;;;;;;;;;;;;;4936929;29;19929;-75
2022/06/24 04:59:07;;;;;;;;;;;;;;;;;;4919897;29;19923;-75
2022/06/24 05:01:32;;;;;;;;;;;;;;;;;;4919844;29;19915;-75
2022/06/24 05:04:00;;;;;;;;;;;;;;;;;;4936978;29;19968;-75
2022/06/24 05:06:26;;;;;;;;;;;;;;;;;;4919706;29;19919;-75
2022/06/24 05:08:51;;;;;;;;;;;;;;;;;;4919483;29;19926;-75
2022/06/24 05:11:17;;;;;;;;;;;;;;;;;;4919563;29;19922;-75
2022/06/24 05:13:42;;;;;;;;;;;;;;;;;;4919705;29;20009;-75
2022/06/24 05:16:08;;;;;;;;;;;;;;;;;;4936655;29;19930;-75
2022/06/24 05:18:33;;;;;;;;;;;;;;;;;;4935681;29;20292;-75
2022/06/24 05:21:00;;;;;;;;;;;;;;;;;;4934698;29;20367;-75
2022/06/24 05:23:26;;;;;;;;;;;;;;;;;;4936327;29;19931;-76
2022/06/24 05:25:52;;;;;;;;;;;;;;;;;;4936172;29;19977;-76
2022/06/24 05:28:17;;;;;;;;;;;;;;;;;;4918393;29;20001;-76
2022/06/24 05:30:43;;;;;;;;;;;;;;;;;;4935187;29;19918;-75
2022/06/24 05:33:09;;;;;;;;;;;;;;;;;;4935472;29;20284;-76
2022/06/24 05:35:35;;;;;;;;;;;;;;;;;;4920420;29;19947;-78
2022/06/24 05:38:01;;;;;;;;;;;;;;;;;;4938742;29;19929;-77
2022/06/24 05:40:26;;;;;;;;;;;;;;;;;;4943493;29;20013;-78
2022/06/24 05:42:52;;;;;;;;;;;;;;;;;;4935929;29;19919;-77
2022/06/24 05:45:17;;;;;;;;;;;;;;;;;;4937766;29;20189;-78
2022/06/24 05:47:42;;;;;;;;;;;;;;;;;;4937399;29;19918;-77
2022/06/24 05:50:08;;;;;;;;;;;;;;;;;;4923632;29;19918;-77
2022/06/24 05:55:17;;;;;;;;;;;;;;;;;;4940105;29;20009;-75
2022/06/24 05:57:43;;;;;;;;;;;;;;;;;;4949932;29;20053;-76
2022/06/24 06:00:09;;;;;;;;;;;;;;;;;;4957960;28;19965;-76
2022/06/24 06:02:35;;;;;;;;;;;;;;;;;;4958266;29;19919;-76
2022/06/24 06:05:00;;;;;;;;;;;;;;;;;;4959455;29;19922;-76
2022/06/24 06:07:26;;;;;;;;;;;;;;;;;;4957900;28;20380;-78
2022/06/24 06:09:51;;;;;;;;;;;;;;;;;;4958030;28;19950;-76
2022/06/24 06:12:16;;;;;;;;;;;;;;;;;;4957635;28;19950;-75
2022/06/24 06:14:42;;;;;;;;;;;;;;;;;;4958973;28;20020;-75
2022/06/24 06:17:07;;;;;;;;;;;;;;;;;;4957231;29;19982;-75
2022/06/24 06:19:34;;;;;;;;;;;;;;;;;;4958696;29;19918;-75
2022/06/24 06:22:03;;;;;;;;;;;;;;;;;;4941347;28;20023;-75
2022/06/24 06:24:30;;;;;;;;;;;;;;;;;;4958716;29;19987;-75
2022/06/24 06:26:59;;;;;;;;;;;;;;;;;;4950242;29;20099;-76
2022/06/24 06:29:24;;;;;;;;;;;;;;;;;;4922574;29;19918;-76
2022/06/24 06:31:52;;;;;;;;;;;;;;;;;;4939282;29;19966;-75
2022/06/24 06:34:19;;;;;;;;;;;;;;;;;;4922413;29;19919;-75
2022/06/24 06:36:44;;;;;;;;;;;;;;;;;;4922159;29;19922;-76
2022/06/24 06:39:10;;;;;;;;;;;;;;;;;;4922381;29;19933;-76
2022/06/24 06:41:35;;;;;;;;;;;;;;;;;;4940808;29;20452;-80
2022/06/24 06:44:01;;;;;;;;;;;;;;;;;;4942415;29;19918;-81
2022/06/24 06:46:26;;;;;;;;;;;;;;;;;;4942660;29;19922;-80
2022/06/24 06:48:51;;;;;;;;;;;;;;;;;;4944617;29;20262;-81
2022/06/24 06:51:17;;;;;;;;;;;;;;;;;;4927712;29;19970;-81
2022/06/24 06:53:42;;;;;;;;;;;;;;;;;;4929112;29;19929;-77
2022/06/24 06:56:08;;;;;;;;;;;;;;;;;;4939313;29;19931;-76
2022/06/24 06:58:33;;;;;;;;;;;;;;;;;;4951865;29;19927;-77
2022/06/24 07:00:58;;;;;;;;;;;;;;;;;;4955509;28;19965;-76
2022/06/24 07:03:24;;;;;;;;;;;;;;;;;;4957225;28;19925;-77
2022/06/24 07:05:50;;;;;;;;;;;;;;;;;;4959304;29;19925;-79
2022/06/24 07:08:16;;;;;;;;;;;;;;;;;;4960214;29;19982;-79
2022/06/24 07:10:42;;;;;;;;;;;;;;;;;;4962481;29;19925;-78
2022/06/24 07:13:11;;;;;;;;;;;;;;;;;;4963260;28;19976;-78
2022/06/24 07:15:38;;;;;;;;;;;;;;;;;;4942862;29;20343;-78
2022/06/24 07:18:04;;;;;;;;;;;;;;;;;;4958526;28;19914;-77
2022/06/24 07:20:29;;;;;;;;;;;;;;;;;;4960610;29;19918;-79
2022/06/24 07:22:55;;;;;;;;;;;;;;;;;;4957279;28;19918;-76
2022/06/24 07:25:20;;;;;;;;;;;;;;;;;;4956689;28;19925;-77
2022/06/24 07:27:46;;;;;;;;;;;;;;;;;;4947600;29;20025;-78
2022/06/24 07:30:11;;;;;;;;;;;;;;;;;;4907074;29;19919;-78
2022/06/24 07:32:37;;;;;;;;;;;;;;;;;;4922453;29;20366;-77
2022/06/24 07:35:03;;;;;;;;;;;;;;;;;;4922351;28;19926;-77
2022/06/24 07:37:28;;;;;;;;;;;;;;;;;;4938261;29;19923;-77
2022/06/24 07:39:53;;;;;;;;;;;;;;;;;;4938669;29;19965;-77
2022/06/24 07:42:19;;;;;;;;;;;;;;;;;;4939260;29;19982;-79
2022/06/24 07:44:44;;;;;;;;;;;;;;;;;;4941369;29;20028;-78
2022/06/24 07:47:10;;;;;;;;;;;;;;;;;;4941231;29;19986;-78
2022/06/24 07:49:35;;;;;;;;;;;;;;;;;;4939875;29;19918;-78
2022/06/24 07:52:01;;;;;;;;;;;;;;;;;;4938952;29;20481;-78
2022/06/24 07:54:26;;;;;;;;;;;;;;;;;;4925142;29;20384;-78
2022/06/24 07:56:57;;;;;;;;;;;;;;;;;;4922920;29;19998;-78
2022/06/24 07:59:27;;;;;;;;;;;;;;;;;;4924322;29;20369;-79
2022/06/24 08:01:53;;;;;;;;;;;;;;;;;;4923850;29;19925;-78
2022/06/24 08:04:22;;;;;;;;;;;;;;;;;;4924013;28;19918;-78
2022/06/24 08:06:49;;;;;;;;;;;;;;;;;;4938948;29;19923;-78
2022/06/24 08:09:25;;;;;;;;;;;;;;;;;;4924206;29;19973;-78
2022/06/24 08:11:51;;;;;;;;;;;;;;;;;;4922868;29;19958;-78
2022/06/24 08:14:17;;;;;;;;;;;;;;;;;;4939855;28;19919;-78
2022/06/24 08:16:43;;;;;;;;;;;;;;;;;;4923051;29;20022;-78
2022/06/24 08:19:08;;;;;;;;;;;;;;;;;;4922951;29;19926;-78
2022/06/24 08:21:34;;;;;;;;;;;;;;;;;;4923324;29;19944;-78
2022/06/24 08:23:59;;;;;;;;;;;;;;;;;;4922576;29;20279;-77
2022/06/24 08:26:25;;;;;;;;;;;;;;;;;;4937859;29;19925;-77
2022/06/24 08:28:51;;;;;;;;;;;;;;;;;;4937796;29;19923;-77
2022/06/24 08:31:16;;;;;;;;;;;;;;;;;;4936610;29;19923;-76
2022/06/24 08:33:41;;;;;;;;;;;;;;;;;;4937943;29;19919;-77
2022/06/24 08:36:07;;;;;;;;;;;;;;;;;;4937006;29;20304;-77
2022/06/24 08:38:32;;;;;;;;;;;;;;;;;;4937760;29;20285;-77
2022/06/24 08:40:59;;;;;;;;;;;;;;;;;;4937716;29;20392;-77
2022/06/24 08:43:27;;;;;;;;;;;;;;;;;;4939542;28;20282;-79
2022/06/24 08:45:52;;;;;;;;;;;;;;;;;;4924261;29;19919;-77
2022/06/24 08:48:19;;;;;;;;;;;;;;;;;;4941433;29;19926;-77
2022/06/24 08:50:45;;;;;;;;;;;;;;;;;;4927903;29;19965;-78
2022/06/24 08:53:11;;;;;;;;;;;;;;;;;;4942007;29;19919;-78
2022/06/24 08:55:37;;;;;;;;;;;;;;;;;;4946153;29;20460;-78
2022/06/24 08:58:12;;;;;;;;;;;;;;;;;;4927227;29;19926;-77
2022/06/24 09:00:38;;;;;;;;;;;;;;;;;;4942720;29;19929;-77
2022/06/24 09:03:04;;;;;;;;;;;;;;;;;;4943262;29;19934;-79
2022/06/24 09:05:29;;;;;;;;;;;;;;;;;;4943475;29;19970;-78
2022/06/24 09:08:07;;;;;;;;;;;;;;;;;;4943262;29;19919;-78
2022/06/24 09:10:33;;;;;;;;;;;;;;;;;;4942755;29;20351;-77
2022/06/24 09:12:58;;;;;;;;;;;;;;;;;;4938282;29;19919;-76
2022/06/24 09:15:24;;;;;;;;;;;;;;;;;;4936314;29;19926;-78
2022/06/24 09:17:50;;;;;;;;;;;;;;;;;;4937338;29;19926;-75
2022/06/24 09:20:17;;;;;;;;;;;;;;;;;;4936453;29;19919;-77
2022/06/24 09:22:42;;;;;;;;;;;;;;;;;;4936739;29;19982;-78
2022/06/24 09:25:08;;;;;;;;;;;;;;;;;;4944327;29;20471;-76
2022/06/24 09:27:34;;;;;;;;;;;;;;;;;;4942044;29;20390;-78
2022/06/24 09:30:00;;;;;;;;;;;;;;;;;;4928854;29;19919;-79
2022/06/24 09:32:25;;;;;;;;;;;;;;;;;;4926597;29;19919;-75
2022/06/24 09:35:01;;;;;;;;;;;;;;;;;;4944197;29;19958;-77
2022/06/24 09:37:53;;;;;;;;;;;;;;;;;;4928566;29;19927;-79
2022/06/24 09:40:22;;;;;;;;;;;;;;;;;;4921658;29;19966;-74
2022/06/24 09:42:55;;;;;;;;;;;;;;;;;;4922212;29;19929;-74
2022/06/24 09:45:21;;;;;;;;;;;;;;;;;;4923586;29;20358;-76
2022/06/24 09:47:49;;;;;;;;;;;;;;;;;;4921995;29;19974;-76
2022/06/24 09:50:18;;;;;;;;;;;;;;;;;;4922152;29;19923;-76
2022/06/24 09:52:44;;;;;;;;;;;;;;;;;;4955576;28;19942;-77
2022/06/24 09:55:10;;;;;;;;;;;;;;;;;;4932265;29;19919;-79
2022/06/24 09:57:39;;;;;;;;;;;;;;;;;;4948157;29;19922;-78
2022/06/24 10:02:53;;;;;;;;;;;;;;;;;;4948290;28;19918;-78
2022/06/24 10:05:19;;;;;;;;;;;;;;;;;;4932096;28;19919;-79
2022/06/24 10:07:47;;;;;;;;;;;;;;;;;;4949621;29;20321;-81
2022/06/24 10:10:16;;;;;;;;;;;;;;;;;;4940210;29;23620;-79
2022/06/24 10:12:46;;;;;;;;;;;;;;;;;;4949166;29;19942;-79
2022/06/24 10:15:13;;;;;;;;;;;;;;;;;;4949610;29;19914;-79
2022/06/24 10:17:38;;;;;;;;;;;;;;;;;;4966062;28;19923;-77
2022/06/24 10:20:05;;;;;;;;;;;;;;;;;;4961842;29;19918;-79
2022/06/24 10:22:37;;;;;;;;;;;;;;;;;;4951161;29;19926;-79
2022/06/24 10:25:02;;;;;;;;;;;;;;;;;;4966164;28;19925;-80
2022/06/24 10:27:46;;;;;;;;;;;;;;;;;;4944173;29;19947;-78
2022/06/24 10:30:13;;;;;;;;;;;;;;;;;;4960495;29;19918;-82
2022/06/24 10:32:58;;;;;;;;;;;;;;;;;;4939979;29;19919;-78
2022/06/24 10:35:23;;;;;;;;;;;;;;;;;;4919565;29;19930;-78
2022/06/24 10:37:50;;;;;;;;;;;;;;;;;;4941212;29;19918;-78
2022/06/24 10:40:23;;;;;;;;;;;;;;;;;;4942174;29;19919;-83
2022/06/24 10:43:05;;;;;;;;;;;;;;;;;;4932682;29;19927;-81
2022/06/24 10:45:34;;;;;;;;;;;;;;;;;;4945223;29;19992;-83
2022/06/24 10:48:00;;;;;;;;;;;;;;;;;;4931120;29;20034;-83
2022/06/24 10:50:26;;;;;;;;;;;;;;;;;;4934114;29;19919;-82
2022/06/24 10:52:53;;;;;;;;;;;;;;;;;;4935401;29;19919;-83
2022/06/24 10:55:20;;;;;;;;;;;;;;;;;;4946589;29;19919;-83
2022/06/24 10:57:47;;;;;;;;;;;;;;;;;;4929206;29;20025;-82
2022/06/24 11:00:13;;;;;;;;;;;;;;;;;;4939556;29;19922;-83
2022/06/24 11:02:39;;;;;;;;;;;;;;;;;;4953121;29;19961;-82
2022/06/24 11:05:06;;;;;;;;;;;;;;;;;;4934189;29;19918;-84
2022/06/24 11:07:32;;;;;;;;;;;;;;;;;;4935100;29;19926;-82
2022/06/24 11:10:00;;;;;;;;;;;;;;;;;;4932529;29;19923;-82
2022/06/24 11:12:28;;;;;;;;;;;;;;;;;;4914294;29;19919;-82
2022/06/24 11:14:54;;;;;;;;;;;;;;;;;;4930079;29;19919;-81
2022/06/24 11:17:24;;;;;;;;;;;;;;;;;;4929651;29;20365;-82
2022/06/24 11:19:49;;;;;;;;;;;;;;;;;;4929891;29;19947;-82
2022/06/24 11:22:15;;;;;;;;;;;;;;;;;;4929623;29;20377;-83
2022/06/24 11:24:41;;;;;;;;;;;;;;;;;;4954777;29;19966;-81
2022/06/24 11:27:07;;;;;;;;;;;;;;;;;;4932147;28;19939;-82
2022/06/24 11:30:08;;;;;;;;;;;;;;;;;;4931789;29;19919;-82
2022/06/24 11:32:52;;;;;;;;;;;;;;;;;;4892614;29;19920;-82
2022/06/24 11:35:18;;;;;;;;;;;;;;;;;;4946277;29;19923;-81
2022/06/24 11:37:46;;;;;;;;;;;;;;;;;;4949316;29;19925;-82
2022/06/24 11:40:25;;;;;;;;;;;;;;;;;;4915103;29;19943;-81
2022/06/24 11:42:54;;;;;;;;;;;;;;;;;;4929895;29;19923;-81
2022/06/24 11:45:33;;;;;;;;;;;;;;;;;;4946740;29;19923;-82
2022/06/24 11:47:59;;;;;;;;;;;;;;;;;;4929403;28;20300;-83
2022/06/24 11:50:24;;;;;;;;;;;;;;;;;;4927661;29;20351;-79
2022/06/24 11:52:50;;;;;;;;;;;;;;;;;;4966198;28;20009;-79
2022/06/24 11:55:22;;;;;;;;;;;;;;;;;;4967309;28;19919;-78
2022/06/24 11:57:51;;;;;;;;;;;;;;;;;;4967556;28;19955;-78
2022/06/24 12:00:17;;;;;;;;;;;;;;;;;;4951422;28;19925;-78
2022/06/24 12:02:44;;;;;;;;;;;;;;;;;;4958582;29;19946;-79
2022/06/24 12:05:10;;;;;;;;;;;;;;;;;;4949308;28;19929;-79
2022/06/24 12:07:35;;;;;;;;;;;;;;;;;;4953773;29;19923;-78
2022/06/24 12:10:00;;;;;;;;;;;;;;;;;;4939996;29;19919;-79
2022/06/24 12:12:26;;;;;;;;;;;;;;;;;;4948429;29;19919;-79
2022/06/24 12:14:55;;;;;;;;;;;;;;;;;;4948987;29;19924;-79
2022/06/24 12:17:20;;;;;;;;;;;;;;;;;;4949269;29;19923;-79
2022/06/24 12:20:00;;;;;;;;;;;;;;;;;;4932510;29;19918;-79
2022/06/24 12:22:25;;;;;;;;;;;;;;;;;;4947576;29;19954;-78
2022/06/24 12:25:04;;;;;;;;;;;;;;;;;;4947038;29;19923;-78
2022/06/24 12:27:37;;;;;;;;;;;;;;;;;;4948129;29;19946;-78
2022/06/24 12:30:03;;;;;;;;;;;;;;;;;;4947297;28;19925;-79
2022/06/24 12:32:46;;;;;;;;;;;;;;;;;;4931483;29;19922;-79
2022/06/24 12:35:12;;;;;;;;;;;;;;;;;;4932475;28;19935;-78
2022/06/24 12:37:37;;;;;;;;;;;;;;;;;;4946755;29;20329;-79
2022/06/24 12:40:03;;;;;;;;;;;;;;;;;;4947519;29;19915;-79
2022/06/24 12:42:31;;;;;;;;;;;;;;;;;;4943977;28;19923;-78
2022/06/24 12:44:59;;;;;;;;;;;;;;;;;;4944343;28;20341;-78
2022/06/24 12:52:57;;;;;;;;;;;;;;;;;;4942112;28;19947;-78
2022/06/24 12:55:23;;;;;;;;;;;;;;;;;;4939102;28;19926;-78
2022/06/24 12:57:48;;;;;;;;;;;;;;;;;;4925133;29;19927;-78
2022/06/24 13:00:15;;;;;;;;;;;;;;;;;;4924301;29;20003;-78
2022/06/24 13:02:41;;;;;;;;;;;;;;;;;;4940821;29;19992;-78
2022/06/24 13:05:07;;;;;;;;;;;;;;;;;;4941136;29;19958;-78
2022/06/24 13:07:33;;;;;;;;;;;;;;;;;;4924184;29;19919;-78
2022/06/24 13:09:58;;;;;;;;;;;;;;;;;;4925696;29;19919;-78
2022/06/24 13:12:23;;;;;;;;;;;;;;;;;;4923245;29;20361;-78
2022/06/24 13:14:49;;;;;;;;;;;;;;;;;;4924182;28;19927;-78
2022/06/24 13:17:14;;;;;;;;;;;;;;;;;;4922587;29;19923;-78
2022/06/24 13:19:42;;;;;;;;;;;;;;;;;;4923396;29;19919;-78
2022/06/24 13:22:07;;;;;;;;;;;;;;;;;;4923047;29;19919;-78
2022/06/24 13:24:33;;;;;;;;;;;;;;;;;;4925815;29;19919;-78
2022/06/24 13:27:01;;;;;;;;;;;;;;;;;;4945047;29;20273;-78
2022/06/24 13:29:27;;;;;;;;;;;;;;;;;;4924577;29;19986;-77
2022/06/24 13:31:53;;;;;;;;;;;;;;;;;;4918535;29;20313;-77
2022/06/24 13:34:18;;;;;;;;;;;;;;;;;;4917348;29;19942;-78
2022/06/24 13:36:44;;;;;;;;;;;;;;;;;;4919948;29;19923;-83
2022/06/24 13:39:09;;;;;;;;;;;;;;;;;;4926997;29;20300;-78
2022/06/24 13:41:36;;;;;;;;;;;;;;;;;;4944907;28;19971;-78
2022/06/24 13:44:01;;;;;;;;;;;;;;;;;;4930768;29;20002;-78
2022/06/24 13:46:27;;;;;;;;;;;;;;;;;;4918753;29;19923;-79
2022/06/24 13:48:56;;;;;;;;;;;;;;;;;;4933163;28;19926;-77
2022/06/24 13:51:24;;;;;;;;;;;;;;;;;;4920554;29;19923;-80
2022/06/24 13:53:52;;;;;;;;;;;;;;;;;;4923725;29;19927;-82
2022/06/24 13:56:17;;;;;;;;;;;;;;;;;;4926792;29;19923;-79
2022/06/24 13:58:43;;;;;;;;;;;;;;;;;;4928213;29;19930;-79
2022/06/24 14:01:08;;;;;;;;;;;;;;;;;;4928138;29;19943;-78
2022/06/24 14:03:33;;;;;;;;;;;;;;;;;;4928184;29;19919;-78
2022/06/24 14:06:00;;;;;;;;;;;;;;;;;;4927588;29;19950;-79
2022/06/24 14:08:26;;;;;;;;;;;;;;;;;;4940498;29;20332;-79
2022/06/24 14:10:52;;;;;;;;;;;;;;;;;;4941904;28;19967;-78
2022/06/24 14:13:17;;;;;;;;;;;;;;;;;;4941110;29;19929;-79
2022/06/24 14:15:42;;;;;;;;;;;;;;;;;;4940072;29;20284;-78
2022/06/24 14:18:08;;;;;;;;;;;;;;;;;;4923956;29;19979;-78
2022/06/24 14:20:34;;;;;;;;;;;;;;;;;;4938763;29;19982;-78
2022/06/24 14:25:43;;;;;;;;;;;;;;;;;;4925456;29;19951;-77
2022/06/24 14:28:08;;;;;;;;;;;;;;;;;;4925720;29;19923;-78
2022/06/24 14:30:34;;;;;;;;;;;;;;;;;;4940405;29;19967;-80
2022/06/24 14:32:59;;;;;;;;;;;;;;;;;;4940426;29;19926;-78
2022/06/24 14:35:24;;;;;;;;;;;;;;;;;;4941835;29;19959;-78
2022/06/24 14:40:33;;;;;;;;;;;;;;;;;;4927015;29;19992;-78
2022/06/24 14:43:00;;;;;;;;;;;;;;;;;;4927904;29;19974;-78
2022/06/24 14:45:26;;;;;;;;;;;;;;;;;;4927351;29;19925;-78
2022/06/24 14:47:51;;;;;;;;;;;;;;;;;;4927660;29;19958;-78
2022/06/24 14:50:18;;;;;;;;;;;;;;;;;;4927135;29;19929;-78
2022/06/24 14:52:43;;;;;;;;;;;;;;;;;;4926990;29;19919;-78
2022/06/24 14:55:09;;;;;;;;;;;;;;;;;;4944151;29;19919;-78
2022/06/24 14:57:35;;;;;;;;;;;;;;;;;;4927038;29;20381;-78
2022/06/24 15:00:00;;;;;;;;;;;;;;;;;;4925300;29;19970;-78
2022/06/24 15:02:26;;;;;;;;;;;;;;;;;;4942290;29;19923;-78
2022/06/24 15:04:51;;;;;;;;;;;;;;;;;;4942607;29;19926;-78
2022/06/24 15:07:17;;;;;;;;;;;;;;;;;;4941958;29;19965;-78
2022/06/24 15:09:42;;;;;;;;;;;;;;;;;;4927242;29;20302;-78
2022/06/24 15:12:09;;;;;;;;;;;;;;;;;;4942738;28;19925;-78
2022/06/24 15:14:35;;;;;;;;;;;;;;;;;;4926695;29;19966;-78
2022/06/24 15:17:00;;;;;;;;;;;;;;;;;;4942070;29;19923;-78
2022/06/24 15:19:25;;;;;;;;;;;;;;;;;;4943945;29;19935;-78
2022/06/24 15:21:51;;;;;;;;;;;;;;;;;;4926371;29;19927;-78
2022/06/24 15:24:16;;;;;;;;;;;;;;;;;;4926311;29;20050;-78
2022/06/24 15:26:42;;;;;;;;;;;;;;;;;;4941216;29;19966;-78
2022/06/24 15:29:07;;;;;;;;;;;;;;;;;;4941834;29;19930;-78
2022/06/24 15:31:32;;;;;;;;;;;;;;;;;;4942835;29;20304;-78
2022/06/24 15:33:58;;;;;;;;;;;;;;;;;;4939450;29;19919;-77
2022/06/24 15:36:23;;;;;;;;;;;;;;;;;;4923194;29;19930;-78
2022/06/24 15:38:48;;;;;;;;;;;;;;;;;;4938666;29;19937;-78
2022/06/24 15:41:16;;;;;;;;;;;;;;;;;;4925708;29;20019;-78
2022/06/24 15:43:44;;;;;;;;;;;;;;;;;;4939242;29;19918;-78
2022/06/24 15:46:10;;;;;;;;;;;;;;;;;;4938134;29;20054;-77
2022/06/24 15:48:44;;;;;;;;;;;;;;;;;;4938962;29;20389;-80
2022/06/24 15:51:09;;;;;;;;;;;;;;;;;;4939691;29;19919;-81
2022/06/24 15:53:35;;;;;;;;;;;;;;;;;;4922612;29;19926;-79
2022/06/24 15:56:00;;;;;;;;;;;;;;;;;;4925212;29;19923;-79
2022/06/24 15:58:26;;;;;;;;;;;;;;;;;;4938860;29;19922;-80
2022/06/24 16:00:51;;;;;;;;;;;;;;;;;;4940699;29;19925;-79
2022/06/24 16:03:16;;;;;;;;;;;;;;;;;;4940955;29;19923;-80
2022/06/24 16:05:42;;;;;;;;;;;;;;;;;;4909076;29;19922;-79
2022/06/24 16:08:08;;;;;;;;;;;;;;;;;;4940426;29;19918;-79
2022/06/24 16:10:33;;;;;;;;;;;;;;;;;;4924700;29;20281;-79
2022/06/24 16:12:59;;;;;;;;;;;;;;;;;;4924413;29;19926;-79
2022/06/24 16:15:25;;;;;;;;;;;;;;;;;;4924541;29;20391;-79
2022/06/24 16:17:51;;;;;;;;;;;;;;;;;;4924707;29;20369;-79
2022/06/24 16:20:17;;;;;;;;;;;;;;;;;;4924188;29;19959;-79
2022/06/24 16:22:43;;;;;;;;;;;;;;;;;;4939576;29;19919;-79
2022/06/24 16:30:38;;;;;;;;;;;;;;;;;;4940492;29;19923;-79
2022/06/24 16:33:04;;;;;;;;;;;;;;;;;;4923212;29;19919;-79
2022/06/24 16:35:29;;;;;;;;;;;;;;;;;;4924726;29;20427;-79
2022/06/24 16:37:55;;;;;;;;;;;;;;;;;;4940498;29;19973;-79
2022/06/24 16:40:20;;;;;;;;;;;;;;;;;;4941356;29;19926;-79
2022/06/24 16:45:30;;;;;;;;;;;;;;;;;;4941458;28;19925;-80
2022/06/24 16:47:55;;;;;;;;;;;;;;;;;;4925547;29;19919;-81
2022/06/24 16:50:21;;;;;;;;;;;;;;;;;;4926009;28;20385;-81
2022/06/24 16:52:47;;;;;;;;;;;;;;;;;;4928535;29;19990;-82
2022/06/24 16:55:13;;;;;;;;;;;;;;;;;;4925348;29;19969;-79
2022/06/24 16:57:42;;;;;;;;;;;;;;;;;;4927282;29;19923;-82
2022/06/24 17:00:08;;;;;;;;;;;;;;;;;;4925344;29;19930;-82
2022/06/24 17:02:34;;;;;;;;;;;;;;;;;;4936464;29;19922;-80
2022/06/24 17:04:59;;;;;;;;;;;;;;;;;;4940048;29;19919;-79
2022/06/24 17:07:24;;;;;;;;;;;;;;;;;;4940890;29;19919;-78
2022/06/24 17:09:50;;;;;;;;;;;;;;;;;;4940713;29;20018;-77
2022/06/24 17:12:15;;;;;;;;;;;;;;;;;;4923708;29;19946;-79
2022/06/24 17:14:40;;;;;;;;;;;;;;;;;;4923706;29;19919;-78